Time;durP1;ratioP1;P1;durP2;ratioP2;P2;SDS_P1;SDS_P2;PMS_P1;PMS_P2;Temp;Humidity;BMP_temperature;BMP_pressure;BME280_temperature;BME280_humidity;BME280_pressure;Samples;Min_cycle;Max_cycle;Signal;HPM_P1;HPM_P2
2024/04/01 00:06:40;;;;;;;54.70;9.20;;;;;;;13.89;53.08;97082.86;435283;1264;108531;-41
2024/04/01 00:16:46;;;;;;;51.70;9.30;;;;;;;13.92;53.40;97088.88;435418;1256;99321;-41
2024/04/01 00:26:53;;;;;;;46.30;8.80;;;;;;;13.87;53.83;97103.98;435341;1266;109223;-43
2024/04/01 00:36:59;;;;;;;57.20;9.90;;;;;;;13.79;54.02;97111.06;435381;1256;100572;-41
2024/04/01 00:47:04;;;;;;;37.00;10.60;;;;;;;13.75;54.27;97115.80;435344;1257;112185;-41
2024/04/01 00:57:11;;;;;;;46.00;8.40;;;;;;;13.72;54.60;97114.93;434999;1255;107385;-41
2024/04/01 01:07:18;;;;;;;51.50;10.40;;;;;;;13.76;54.95;97101.29;436294;1250;100600;-41
2024/04/01 01:17:25;;;;;;;47.00;7.60;;;;;;;13.74;55.10;97096.58;435216;1256;108849;-41
2024/04/01 01:27:31;;;;;;;46.60;7.60;;;;;;;13.67;55.22;97102.46;435334;1253;100565;-40
2024/04/01 01:37:35;;;;;;;56.10;9.50;;;;;;;13.56;55.45;97087.57;435149;1255;114214;-40
2024/04/01 01:47:42;;;;;;;42.20;9.30;;;;;;;13.41;55.79;97092.76;435292;1255;107550;-41
2024/04/01 01:57:48;;;;;;;42.80;8.90;;;;;;;13.25;56.13;97090.58;435298;1256;100571;-41
2024/04/01 02:07:55;;;;;;;46.60;8.30;;;;;;;13.09;56.84;97087.59;435352;1253;108581;-40
2024/04/01 02:18:03;;;;;;;49.30;10.50;;;;;;;12.87;57.32;97082.00;435216;1256;100594;-40
2024/04/01 02:28:10;;;;;;;47.70;8.10;;;;;;;12.74;58.25;97068.80;435332;1256;112480;-41
2024/04/01 02:38:18;;;;;;;51.80;8.60;;;;;;;12.71;58.78;97072.02;435303;1256;108399;-41
2024/04/01 02:48:24;;;;;;;53.20;9.90;;;;;;;12.65;59.20;97067.70;435252;1253;100590;-41
2024/04/01 02:58:31;;;;;;;46.60;8.70;;;;;;;12.54;59.46;97071.73;435206;1252;107934;-41
2024/04/01 03:18:44;;;;;;;47.10;9.20;;;;;;;12.45;60.32;97065.13;435259;1256;112671;-40
2024/04/01 03:28:51;;;;;;;45.60;7.70;;;;;;;12.43;60.76;97048.23;435256;1256;108648;-39
2024/04/01 03:38:57;;;;;;;52.90;10.00;;;;;;;12.43;61.51;97051.36;435457;1256;100780;-40
2024/04/01 03:49:04;;;;;;;54.40;9.70;;;;;;;12.54;61.86;97034.03;435211;1257;107417;-43
2024/04/01 03:59:11;;;;;;;51.00;7.50;;;;;;;12.70;61.92;97038.73;435073;1256;100574;-40
2024/04/01 04:09:18;;;;;;;57.10;7.60;;;;;;;12.74;61.91;97051.36;435481;1255;112229;-41
2024/04/01 04:29:30;;;;;;;36.40;7.50;;;;;;;12.58;62.08;97056.73;435422;1251;99345;-41
2024/04/01 04:39:36;;;;;;;32.20;6.80;;;;;;;12.60;62.35;97059.74;435443;1254;109384;-40
2024/04/01 04:49:43;;;;;;;32.40;5.70;;;;;;;12.60;62.46;97038.65;435113;1256;100568;-40
2024/04/01 04:59:50;;;;;;;39.70;9.10;;;;;;;12.61;62.50;97015.19;435293;1256;112599;-40
2024/04/01 05:09:56;;;;;;;43.70;7.50;;;;;;;12.62;62.47;97019.15;435122;1256;108746;-40
2024/04/01 05:20:05;;;;;;;36.40;5.90;;;;;;;12.66;62.45;97040.33;435280;1251;100466;-41
2024/04/01 05:30:10;;;;;;;41.50;7.90;;;;;;;12.78;62.53;96998.13;435262;1256;108953;-41
2024/04/01 05:40:16;;;;;;;47.40;9.10;;;;;;;12.91;62.52;96991.55;434456;1256;609676;-41
2024/04/01 05:50:23;;;;;;;34.50;7.40;;;;;;;13.04;62.44;96990.44;435323;1256;112298;-40
2024/04/01 06:00:29;;;;;;;50.30;9.00;;;;;;;13.18;62.62;96997.11;435348;1256;107369;-40
2024/04/01 06:10:37;;;;;;;42.70;7.10;;;;;;;13.51;62.72;97010.75;435123;1256;100590;-42
2024/04/01 06:20:45;;;;;;;52.20;9.70;;;;;;;14.01;62.70;97019.44;435349;1254;108578;-40
2024/04/01 06:30:51;;;;;;;59.10;11.40;;;;;;;14.47;62.58;97026.22;435307;1263;99374;-40
2024/04/01 06:40:58;;;;;;;66.20;12.30;;;;;;;15.05;62.31;97031.94;435420;1254;114183;-41
2024/04/01 06:51:06;;;;;;;57.80;9.70;;;;;;;16.54;60.59;96989.10;435200;1257;107826;-41
2024/04/01 07:01:12;;;;;;;78.50;13.30;;;;;;;17.01;58.89;96972.08;435321;1254;99276;-40
2024/04/01 07:11:18;;;;;;;62.70;11.90;;;;;;;17.00;57.90;96980.96;435228;1263;109256;-40
2024/04/01 07:31:33;;;;;;;73.70;11.60;;;;;;;17.49;57.29;96981.73;435305;1255;113346;-40
2024/04/01 07:41:39;;;;;;;76.80;12.00;;;;;;;17.94;56.88;96987.82;435344;1257;107608;-40
2024/04/01 07:51:46;;;;;;;66.50;13.00;;;;;;;18.28;55.61;96974.46;435255;1263;99609;-42
2024/04/01 08:02:06;;;;;;;72.90;13.10;;;;;;;19.08;54.59;96973.55;435296;1256;107906;-40
2024/04/01 08:12:11;;;;;;;90.10;13.20;;;;;;;18.78;53.57;96966.88;435167;1251;99353;-41
2024/04/01 08:22:18;;;;;;;70.80;11.50;;;;;;;19.14;53.00;96952.77;435308;1256;113012;-41
2024/04/01 08:32:25;;;;;;;77.40;12.40;;;;;;;19.76;52.18;96940.88;435102;1251;108118;-41
2024/04/01 08:42:33;;;;;;;77.20;12.90;;;;;;;19.98;51.48;96921.45;435386;1257;99432;-41
2024/04/01 08:52:56;;;;;;;78.10;14.00;;;;;;;20.02;51.75;96894.95;435262;1263;107230;-42
2024/04/01 09:03:03;;;;;;;65.20;12.10;;;;;;;19.99;51.33;96880.54;435306;1251;100594;-42
2024/04/01 09:33:24;;;;;;;58.10;12.60;;;;;;;20.71;48.82;96863.83;435243;1254;100705;-40
2024/04/01 09:43:33;;;;;;;76.60;13.60;;;;;;;20.99;48.82;96848.60;435345;1251;108648;-40
2024/04/01 09:53:56;;;;;;;62.50;12.70;;;;;;;21.55;48.04;96837.65;435231;1251;99359;-40
2024/04/01 10:04:23;;;;;;;85.90;12.10;;;;;;;21.92;46.87;96820.74;435147;1255;113904;-42
2024/04/01 10:14:58;;;;;;;66.80;12.50;;;;;;;22.23;46.09;96827.00;435370;1251;108651;-40
2024/04/01 10:25:42;;;;;;;75.60;13.60;;;;;;;22.62;44.75;96821.20;435449;1255;99318;-40
2024/04/01 11:07:42;;;;;;;84.60;13.60;;;;;;;23.58;42.48;96783.46;435294;1256;107727;-40
2024/04/01 11:17:55;;;;;;;57.00;11.30;;;;;;;23.72;42.16;96780.17;435088;1251;100596;-40
2024/04/01 11:28:09;;;;;;;68.30;10.60;;;;;;;23.97;40.74;96768.23;435271;1251;107398;-40
2024/04/01 11:38:21;;;;;;;65.40;10.60;;;;;;;24.18;39.84;96760.23;435299;1251;99388;-42
2024/04/01 11:48:28;;;;;;;72.40;11.50;;;;;;;24.30;38.64;96768.92;435136;1254;113106;-40
2024/04/01 11:58:35;;;;;;;65.50;11.30;;;;;;;24.26;38.93;96772.85;435317;1256;108826;-40
2024/04/01 12:08:43;;;;;;;64.80;11.80;;;;;;;24.12;37.34;96761.22;435283;1256;100907;-40
2024/04/01 12:18:50;;;;;;;66.10;10.00;;;;;;;24.15;37.98;96764.59;435254;1257;106462;-41
2024/04/01 12:28:57;;;;;;;57.10;11.50;;;;;;;24.23;38.03;96757.20;435410;1251;99385;-41
2024/04/01 12:39:04;;;;;;;48.50;10.70;;;;;;;24.11;37.84;96753.71;435226;1256;112922;-41
2024/04/01 12:49:11;;;;;;;72.80;11.50;;;;;;;24.15;38.24;96745.84;435395;1256;108688;-40
2024/04/01 12:59:17;;;;;;;67.60;12.10;;;;;;;23.99;38.30;96734.95;435172;1251;99691;-41
2024/04/01 13:09:22;;;;;;;63.90;9.80;;;;;;;24.25;37.72;96729.62;435129;1251;107769;-40
2024/04/01 13:19:34;;;;;;;65.00;12.70;;;;;;;24.55;37.43;96717.45;435235;1256;99388;-41
2024/04/01 13:29:42;;;;;;;62.10;9.80;;;;;;;24.22;37.08;96711.99;435139;1256;112964;-43
2024/04/01 13:39:54;;;;;;;52.10;9.30;;;;;;;23.89;36.93;96708.42;435140;1251;105544;-40
2024/04/01 13:50:22;;;;;;;56.30;9.60;;;;;;;24.09;37.48;96695.83;435143;1253;99363;-40
2024/04/01 14:00:31;;;;;;;58.80;9.10;;;;;;;24.15;37.35;96689.53;435047;1251;109299;-40
2024/04/01 14:10:38;;;;;;;59.30;11.40;;;;;;;24.15;37.06;96674.23;435246;1251;99377;-41
2024/04/01 14:20:46;;;;;;;58.10;9.80;;;;;;;24.11;36.57;96665.45;435253;1253;112811;-41
2024/04/01 14:30:52;;;;;;;64.30;11.80;;;;;;;24.14;36.65;96668.22;435207;1251;107104;-40
2024/04/01 14:40:58;;;;;;;71.30;12.20;;;;;;;24.20;36.93;96663.43;435169;1251;99438;-40
2024/04/01 14:51:05;;;;;;;66.30;11.00;;;;;;;24.16;37.12;96650.57;435256;1256;108227;-41
2024/04/01 15:01:13;;;;;;;46.80;9.80;;;;;;;24.14;36.58;96651.24;435369;1255;100551;-41
2024/04/01 15:11:19;;;;;;;66.20;10.20;;;;;;;24.16;36.33;96648.73;435251;1251;112647;-41
2024/04/01 15:21:27;;;;;;;78.80;11.70;;;;;;;24.05;36.83;96640.85;435015;1252;107808;-40
2024/04/01 15:31:33;;;;;;;64.20;11.00;;;;;;;23.76;37.00;96620.55;435146;1251;100576;-41
2024/04/01 15:41:41;;;;;;;82.90;13.30;;;;;;;23.48;37.47;96615.42;435153;1251;107912;-41
2024/04/01 15:51:47;;;;;;;81.30;13.50;;;;;;;23.42;37.60;96614.40;435129;1255;99705;-41
2024/04/01 16:01:55;;;;;;;68.60;11.40;;;;;;;23.27;37.54;96616.24;435157;1256;112296;-40
2024/04/01 16:12:06;;;;;;;77.20;12.20;;;;;;;23.04;37.62;96626.63;435213;1256;107889;-40
2024/04/01 16:22:15;;;;;;;80.70;13.90;;;;;;;22.72;38.20;96628.83;435313;1251;100609;-41
2024/04/01 16:32:23;;;;;;;67.30;12.20;;;;;;;22.43;38.54;96633.50;435220;1253;107752;-41
2024/04/01 16:42:32;;;;;;;80.80;13.10;;;;;;;22.13;39.16;96634.11;435120;1251;99940;-41
2024/04/01 16:52:39;;;;;;;70.10;15.20;;;;;;;21.85;39.70;96633.64;435146;1255;112245;-40
2024/04/01 17:02:46;;;;;;;70.20;15.70;;;;;;;21.56;40.16;96636.83;435224;1256;109098;-40
2024/04/01 17:12:53;;;;;;;112.60;20.20;;;;;;;21.20;40.98;96651.17;435382;1256;99324;-41
2024/04/01 17:23:00;;;;;;;92.70;21.10;;;;;;;20.93;41.54;96647.95;435121;1256;107913;-41
2024/04/01 17:33:07;;;;;;;87.50;18.90;;;;;;;20.76;41.87;96660.70;435298;1256;99355;-41
2024/04/01 17:43:15;;;;;;;101.10;18.30;;;;;;;20.74;41.92;96669.77;434725;1251;520924;-41
2024/04/01 17:53:23;;;;;;;104.50;19.30;;;;;;;21.02;41.25;96675.25;435319;1256;108017;-40
2024/04/01 18:03:30;;;;;;;93.10;18.20;;;;;;;21.21;40.65;96673.51;435267;1256;100709;-41
2024/04/01 18:13:37;;;;;;;87.00;16.20;;;;;;;21.28;40.21;96673.02;435282;1256;107739;-40
2024/04/01 18:23:43;;;;;;;91.70;17.10;;;;;;;21.20;40.11;96679.48;435171;1251;100574;-40
2024/04/01 18:33:49;;;;;;;78.70;16.60;;;;;;;21.17;39.91;96679.93;435319;1251;113831;-40
2024/04/01 18:43:57;;;;;;;97.60;16.60;;;;;;;21.13;39.73;96678.39;435106;1256;108856;-40
2024/04/01 18:54:08;;;;;;;112.40;18.30;;;;;;;21.09;39.82;96676.36;435290;1253;100597;-40
2024/04/01 19:04:15;;;;;;;106.60;21.00;;;;;;;21.08;39.72;96685.19;435202;1256;107731;-40
2024/04/01 19:14:21;;;;;;;99.60;18.60;;;;;;;21.06;39.76;96699.02;435172;1256;100597;-38
2024/04/01 19:24:27;;;;;;;81.60;15.40;;;;;;;21.03;39.69;96726.34;435218;1254;112173;-40
2024/04/01 19:34:36;;;;;;;63.10;11.00;;;;;;;20.45;42.26;96745.63;435190;1252;108554;-39
2024/04/01 19:54:50;;;;;;;54.10;9.60;;;;;;;18.66;48.27;96775.71;435294;1256;108709;-41
2024/04/01 20:04:56;;;;;;;37.00;8.50;;;;;;;17.79;52.64;96783.16;435274;1252;100703;-41
2024/04/01 20:15:03;;;;;;;27.00;6.50;;;;;;;17.07;56.40;96788.73;435287;1253;112296;-40
2024/04/01 20:25:10;;;;;;;28.10;5.30;;;;;;;16.71;57.38;96777.20;435151;1256;106712;-42
2024/04/01 20:35:15;;;;;;;16.10;3.00;;;;;;;16.46;57.55;96779.20;435311;1253;100720;-41
2024/04/01 20:45:25;;;;;;;15.40;2.40;;;;;;;16.25;57.43;96788.98;435347;1256;109581;-40
2024/04/01 20:55:33;;;;;;;8.90;2.70;;;;;;;15.99;58.25;96807.49;435251;1256;99965;-42
2024/04/01 21:05:41;;;;;;;7.80;1.90;;;;;;;15.76;59.20;96818.59;435273;1256;113741;-41
2024/04/01 21:15:47;;;;;;;6.70;1.40;;;;;;;15.60;59.48;96820.53;435256;1256;107419;-40
2024/04/01 21:25:54;;;;;;;13.60;2.30;;;;;;;15.39;60.61;96847.32;435233;1251;99349;-41
2024/04/01 21:36:01;;;;;;;4.50;1.70;;;;;;;15.14;61.58;96847.70;434949;1256;109005;-41
2024/04/01 21:46:08;;;;;;;6.90;2.40;;;;;;;14.98;62.16;96827.80;435247;1253;100594;-40
2024/04/01 21:56:14;;;;;;;6.40;2.10;;;;;;;14.82;62.79;96846.20;435245;1251;113716;-42
2024/04/01 22:06:21;;;;;;;6.10;1.50;;;;;;;14.64;63.15;96838.59;435152;1256;108411;-40
2024/04/01 22:16:28;;;;;;;6.10;2.00;;;;;;;14.48;64.65;96871.45;435265;1256;100581;-40
2024/04/01 22:26:34;;;;;;;7.20;2.00;;;;;;;14.41;64.89;96923.25;435349;1256;108327;-40
2024/04/01 22:36:40;;;;;;;9.20;2.50;;;;;;;14.29;65.71;96880.73;435096;1264;99353;-42
2024/04/01 22:46:47;;;;;;;14.80;2.60;;;;;;;14.07;66.53;96850.48;435216;1251;112393;-42
2024/04/01 22:56:54;;;;;;;9.20;1.90;;;;;;;13.82;68.22;96847.38;435221;1256;107418;-41
2024/04/01 23:07:01;;;;;;;2.60;1.20;;;;;;;13.55;68.94;96863.24;435143;1255;100697;-41
2024/04/01 23:17:08;;;;;;;3.60;1.10;;;;;;;13.27;69.61;96880.42;435062;1257;109419;-40
2024/04/01 23:27:14;;;;;;;3.90;1.30;;;;;;;13.09;70.13;96886.57;435192;1256;100610;-41
2024/04/01 23:37:21;;;;;;;3.90;1.60;;;;;;;12.95;71.47;96858.05;435246;1253;113490;-40
2024/04/01 23:47:27;;;;;;;4.10;1.60;;;;;;;12.80;72.09;96843.48;435060;1251;108287;-40
